createdAt,value
2019-03-03T00:00:34.654Z,6.87
2019-03-03T00:03:04.444Z,6.43
2019-03-03T00:05:34.051Z,6.43
2019-03-03T00:08:03.853Z,6.90
2019-03-03T00:10:33.515Z,6.50
2019-03-03T00:13:03.261Z,6.00
2019-03-03T00:15:32.865Z,6.87
2019-03-03T00:18:02.730Z,6.80
2019-03-03T00:20:32.622Z,6.50
2019-03-03T00:23:02.249Z,4.90
2019-03-03T00:25:31.925Z,5.87
2019-03-03T00:28:01.537Z,7.87
2019-03-03T00:30:31.291Z,5.93
2019-03-03T00:33:00.918Z,5.23
2019-03-03T00:35:31.658Z,6.80
2019-03-03T00:38:39.428Z,4.80
2019-03-03T00:41:36.781Z,5.73
2019-03-03T00:44:24.423Z,7.70
2019-03-03T00:47:14.289Z,4.80
2019-03-03T00:50:05.400Z,5.13
2019-03-03T00:53:01.902Z,6.27
2019-03-03T00:55:49.519Z,8.00
2019-03-03T00:58:33.051Z,6.00
2019-03-03T01:01:21.838Z,4.30
2019-03-03T01:04:06.041Z,6.27
2019-03-03T01:06:54.514Z,5.67
2019-03-03T01:09:43.498Z,6.10
2019-03-03T01:12:22.337Z,5.93
2019-03-03T01:14:58.430Z,7.10
2019-03-03T01:17:40.845Z,5.77
2019-03-03T01:20:29.703Z,4.70
2019-03-03T01:23:16.109Z,6.43
2019-03-03T01:25:45.770Z,4.00
2019-03-03T01:28:15.378Z,7.10
2019-03-03T01:30:45.174Z,5.47
2019-03-03T01:33:15.061Z,5.90
2019-03-03T01:35:44.676Z,4.77
2019-03-03T01:38:14.321Z,5.97
2019-03-03T01:40:43.950Z,5.07
2019-03-03T01:43:13.566Z,6.77
2019-03-03T01:45:43.261Z,6.37
2019-03-03T01:48:12.875Z,5.57
2019-03-03T01:50:42.582Z,7.80
2019-03-03T01:53:12.244Z,5.73
2019-03-03T01:55:41.957Z,5.63
2019-03-03T01:58:11.592Z,5.90
2019-03-03T02:00:41.481Z,6.93
2019-03-03T02:03:11.186Z,5.27
2019-03-03T02:05:41.054Z,6.93
2019-03-03T02:08:10.858Z,7.07
2019-03-03T02:10:40.498Z,6.93
2019-03-03T02:13:10.266Z,6.00
2019-03-03T02:15:39.983Z,6.80
2019-03-03T02:18:09.692Z,7.23
2019-03-03T02:20:39.306Z,6.80
2019-03-03T02:23:21.122Z,6.50
2019-03-03T02:25:50.997Z,6.37
2019-03-03T02:28:20.717Z,5.43
2019-03-03T02:30:50.342Z,8.83
2019-03-03T02:33:20.039Z,7.23
2019-03-03T02:35:49.654Z,6.60
2019-03-03T02:38:19.315Z,7.23
2019-03-03T02:40:48.927Z,7.40
2019-03-03T02:43:18.548Z,8.57
2019-03-03T02:45:48.187Z,7.80
2019-03-03T02:48:17.873Z,6.97
2019-03-03T02:50:47.490Z,7.93
2019-03-03T02:53:17.108Z,6.93
2019-03-03T02:55:46.711Z,7.50
2019-03-03T02:58:28.298Z,9.00
2019-03-03T03:01:11.599Z,7.93
2019-03-03T03:03:41.241Z,10.50
2019-03-03T03:06:42.115Z,9.20
2019-03-03T03:09:31.049Z,10.30
2019-03-03T03:12:25.819Z,9.53
2019-03-03T03:15:06.568Z,8.47
2019-03-03T03:17:42.342Z,9.50
2019-03-03T03:20:19.325Z,11.63
2019-03-03T03:23:04.503Z,12.33
2019-03-03T03:25:53.283Z,12.30
2019-03-03T03:28:39.823Z,11.50
2019-03-03T03:31:18.514Z,10.93
2019-03-03T03:33:59.341Z,9.47
2019-03-03T03:36:53.511Z,10.63
2019-03-03T03:39:48.274Z,10.53
2019-03-03T03:42:44.282Z,11.60
2019-03-03T03:45:32.339Z,10.57
2019-03-03T03:48:26.914Z,10.90
2019-03-03T03:51:20.371Z,8.87
2019-03-03T03:54:04.850Z,9.93
2019-03-03T03:56:59.498Z,8.77
2019-03-03T03:59:41.947Z,10.73
2019-03-03T04:02:29.707Z,10.00
2019-03-03T04:05:06.703Z,9.83
2019-03-03T04:07:45.613Z,8.33
2019-03-03T04:10:21.104Z,10.30
2019-03-03T04:13:14.032Z,11.37
2019-03-03T04:16:00.818Z,10.93
2019-03-03T04:18:39.007Z,11.33
2019-03-03T04:21:18.866Z,10.20
2019-03-03T04:24:06.430Z,11.33
2019-03-03T04:26:51.345Z,10.43
2019-03-03T04:29:46.135Z,10.97
2019-03-03T04:32:21.366Z,11.13
2019-03-03T04:35:10.148Z,11.07
2019-03-03T04:38:05.014Z,11.87
2019-03-03T04:41:04.102Z,12.50
2019-03-03T04:43:46.810Z,9.97
2019-03-03T04:46:30.942Z,10.33
2019-03-03T04:49:35.202Z,11.70
2019-03-03T04:52:32.682Z,11.00
2019-03-03T04:55:21.422Z,9.87
2019-03-03T04:58:05.466Z,10.47
2019-03-03T05:00:51.469Z,11.90
2019-03-03T05:03:35.721Z,10.47
2019-03-03T05:06:30.346Z,9.77
2019-03-03T05:09:09.202Z,9.20
2019-03-03T05:12:31.893Z,11.00
2019-03-03T05:15:09.370Z,9.30
2019-03-03T05:17:50.176Z,10.67
2019-03-03T05:20:19.862Z,9.00
2019-03-03T05:22:49.494Z,9.40
2019-03-03T05:25:19.138Z,8.80
2019-03-03T05:27:48.853Z,8.40
2019-03-03T05:30:18.606Z,7.53
2019-03-03T05:32:48.223Z,7.30
2019-03-03T05:35:17.873Z,7.73
2019-03-03T05:37:47.492Z,8.23
2019-03-03T05:40:17.094Z,8.57
2019-03-03T05:42:46.732Z,8.67
2019-03-03T05:45:16.330Z,7.97
2019-03-03T05:47:46.103Z,6.80
2019-03-03T05:50:15.694Z,8.33
2019-03-03T05:52:45.300Z,7.93
2019-03-03T05:55:14.917Z,7.37
2019-03-03T05:57:44.539Z,8.63
2019-03-03T06:00:15.278Z,8.47
2019-03-03T06:02:44.886Z,8.63
2019-03-03T06:05:14.569Z,8.60
2019-03-03T06:07:44.231Z,8.40
2019-03-03T06:10:14.030Z,9.27
2019-03-03T06:12:43.673Z,8.53
2019-03-03T06:15:14.071Z,8.97
2019-03-03T06:17:43.821Z,8.63
2019-03-03T06:20:27.775Z,8.60
2019-03-03T06:22:56.926Z,7.77
2019-03-03T06:25:26.607Z,9.90
2019-03-03T06:27:56.209Z,8.83
2019-03-03T06:30:25.825Z,10.30
2019-03-03T06:32:55.466Z,11.57
2019-03-03T06:35:26.138Z,12.70
2019-03-03T06:37:56.030Z,13.50
2019-03-03T06:40:25.638Z,12.57
2019-03-03T06:42:55.243Z,13.13
2019-03-03T06:45:24.849Z,15.37
2019-03-03T06:47:54.459Z,18.40
2019-03-03T06:50:24.083Z,16.67
2019-03-03T06:52:53.718Z,18.50
2019-03-03T06:55:23.340Z,16.70
2019-03-03T06:57:52.933Z,17.80
2019-03-03T07:00:22.582Z,17.53
2019-03-03T07:02:53.475Z,19.17
2019-03-03T07:05:28.028Z,17.50
2019-03-03T07:08:07.239Z,14.97
2019-03-03T07:10:47.356Z,14.20
2019-03-03T07:13:24.970Z,13.70
2019-03-03T07:16:07.029Z,14.60
2019-03-03T07:18:50.305Z,14.77
2019-03-03T07:21:29.038Z,12.83
2019-03-03T07:24:02.482Z,12.00
2019-03-03T07:26:37.370Z,10.70
2019-03-03T07:29:10.120Z,10.67
2019-03-03T07:31:50.384Z,7.90
2019-03-03T07:34:32.579Z,8.13
2019-03-03T07:37:04.662Z,7.80
2019-03-03T07:39:34.548Z,8.13
2019-03-03T07:42:06.087Z,7.73
2019-03-03T07:44:36.068Z,5.50
2019-03-03T07:47:06.091Z,6.07
2019-03-03T07:49:36.139Z,7.43
2019-03-03T07:52:06.196Z,7.67
2019-03-03T07:54:38.439Z,6.37
2019-03-03T07:57:18.916Z,6.43
2019-03-03T08:00:01.047Z,6.07
2019-03-03T08:02:39.460Z,6.37
2019-03-03T08:05:11.150Z,6.23
2019-03-03T08:07:59.477Z,6.50
2019-03-03T08:10:37.974Z,6.80
2019-03-03T08:13:15.655Z,6.70
2019-03-03T08:15:55.399Z,7.57
2019-03-03T08:18:33.571Z,7.07
2019-03-03T08:21:04.326Z,7.97
2019-03-03T08:23:40.086Z,10.30
2019-03-03T08:26:14.063Z,7.70
2019-03-03T08:28:44.202Z,9.50
2019-03-03T08:31:16.416Z,6.23
2019-03-03T08:33:46.439Z,6.97
2019-03-03T08:36:35.442Z,5.77
2019-03-03T08:39:20.437Z,6.80
2019-03-03T08:42:01.356Z,6.03
2019-03-03T08:44:55.903Z,7.33
2019-03-03T08:47:53.311Z,6.43
2019-03-03T08:50:30.821Z,6.17
2019-03-03T08:53:08.746Z,5.60
2019-03-03T08:55:59.735Z,7.13
2019-03-03T08:58:49.797Z,7.20
2019-03-03T09:01:35.394Z,6.67
2019-03-03T09:04:30.735Z,6.00
2019-03-03T09:07:37.581Z,7.33
2019-03-03T09:10:25.181Z,6.07
2019-03-03T09:13:05.506Z,5.77
2019-03-03T09:15:53.009Z,5.10
2019-03-03T09:18:50.662Z,5.30
2019-03-03T09:21:45.744Z,5.23
2019-03-03T09:24:34.434Z,4.37
2019-03-03T09:27:11.821Z,5.13
2019-03-03T09:30:01.607Z,4.73
2019-03-03T09:33:06.762Z,4.13
2019-03-03T09:35:45.318Z,3.67
2019-03-03T09:38:30.902Z,4.53
2019-03-03T09:41:13.805Z,3.90
2019-03-03T09:44:20.663Z,4.70
2019-03-03T09:47:03.082Z,5.23
2019-03-03T09:49:42.823Z,4.40
2019-03-03T09:52:43.628Z,6.20
2019-03-03T09:55:36.422Z,6.40
2019-03-03T09:58:25.938Z,6.00
2019-03-03T10:01:10.838Z,5.80
2019-03-03T10:03:46.242Z,7.23
2019-03-03T10:06:41.054Z,6.33
2019-03-03T10:09:31.311Z,5.67
2019-03-03T10:12:29.207Z,6.13
2019-03-03T10:15:26.915Z,5.33
2019-03-03T10:18:13.332Z,5.40
2019-03-03T10:21:03.170Z,5.47
2019-03-03T10:23:46.403Z,5.37
2019-03-03T10:26:38.437Z,5.13
2019-03-03T10:29:31.134Z,4.83
2019-03-03T10:32:29.272Z,5.67
2019-03-03T10:35:16.942Z,4.90
2019-03-03T10:38:04.042Z,6.17
2019-03-03T10:40:56.818Z,6.47
2019-03-03T10:43:48.835Z,6.17
2019-03-03T10:46:44.132Z,6.40
2019-03-03T10:49:32.772Z,7.70
2019-03-03T10:52:08.686Z,5.50
2019-03-03T10:54:55.936Z,5.53
2019-03-03T10:57:48.674Z,6.10
2019-03-03T11:00:43.486Z,6.60
2019-03-03T11:03:44.333Z,6.17
2019-03-03T11:06:51.439Z,5.90
2019-03-03T11:09:31.368Z,5.83
2019-03-03T11:12:23.661Z,6.00
2019-03-03T11:15:03.289Z,6.43
2019-03-03T11:18:04.266Z,6.97
2019-03-03T11:20:53.157Z,8.13
2019-03-03T11:23:30.014Z,7.27
2019-03-03T11:26:11.954Z,6.80
2019-03-03T11:29:03.758Z,6.87
2019-03-03T11:31:51.230Z,7.03
2019-03-03T11:34:30.891Z,6.70
2019-03-03T11:37:09.229Z,6.50
2019-03-03T11:39:51.480Z,6.53
2019-03-03T11:42:30.963Z,5.53
2019-03-03T11:45:12.519Z,6.43
2019-03-03T11:48:04.735Z,6.27
2019-03-03T11:50:47.259Z,7.60
2019-03-03T11:53:31.197Z,8.13
2019-03-03T11:56:29.220Z,7.47
2019-03-03T11:59:24.509Z,9.20
2019-03-03T12:02:13.216Z,7.17
2019-03-03T12:05:00.702Z,6.97
2019-03-03T12:08:04.675Z,6.63
2019-03-03T12:10:52.130Z,9.10
2019-03-03T12:13:40.844Z,7.23
2019-03-03T12:16:29.125Z,6.27
2019-03-03T12:19:30.238Z,6.07
2019-03-03T12:22:06.722Z,6.73
2019-03-03T12:24:45.844Z,8.73
2019-03-03T12:27:33.572Z,8.17
2019-03-03T12:30:25.508Z,9.00
2019-03-03T12:33:10.467Z,9.70
2019-03-03T12:35:45.987Z,7.53
2019-03-03T12:38:41.143Z,7.17
2019-03-03T12:41:28.904Z,9.10
2019-03-03T12:44:13.182Z,9.53
2019-03-03T12:46:53.205Z,10.03
2019-03-03T12:49:29.879Z,9.53
2019-03-03T12:52:24.685Z,10.63
2019-03-03T12:55:16.482Z,11.53
2019-03-03T12:57:58.384Z,10.37
2019-03-03T13:00:46.647Z,10.17
2019-03-03T13:03:41.471Z,9.90
2019-03-03T13:06:36.761Z,11.17
2019-03-03T13:09:19.609Z,8.13
2019-03-03T13:12:02.241Z,9.70
2019-03-03T13:14:44.410Z,10.37
2019-03-03T13:17:29.910Z,9.53
2019-03-03T13:20:18.637Z,10.40
2019-03-03T13:23:25.829Z,9.03
2019-03-03T13:26:11.777Z,8.93
2019-03-03T13:28:49.073Z,9.20
2019-03-03T13:31:30.550Z,8.93
2019-03-03T13:34:37.615Z,9.70
2019-03-03T13:37:26.701Z,8.73
2019-03-03T13:40:21.450Z,7.00
2019-03-03T13:42:56.471Z,6.90
2019-03-03T13:45:28.427Z,9.13
2019-03-03T13:47:58.161Z,7.87
2019-03-03T13:50:28.051Z,7.53
2019-03-03T13:52:57.831Z,7.70
2019-03-03T13:55:27.618Z,7.07
2019-03-03T13:57:57.494Z,7.73
2019-03-03T14:00:27.362Z,6.73
2019-03-03T14:02:57.286Z,8.90
2019-03-03T14:05:27.148Z,7.33
2019-03-03T14:07:57.118Z,6.80
2019-03-03T14:10:26.826Z,8.43
2019-03-03T14:12:57.521Z,6.10
2019-03-03T14:15:27.242Z,7.10
2019-03-03T14:17:58.054Z,6.57
2019-03-03T14:20:27.858Z,7.03
2019-03-03T14:22:57.454Z,5.63
2019-03-03T14:25:27.241Z,6.97
2019-03-03T14:27:57.162Z,8.03
2019-03-03T14:30:27.211Z,7.87
2019-03-03T14:32:56.900Z,6.80
2019-03-03T14:35:26.514Z,5.70
2019-03-03T14:37:56.530Z,6.97
2019-03-03T14:40:26.324Z,5.30
2019-03-03T14:42:56.038Z,5.87
2019-03-03T14:45:25.832Z,6.27
2019-03-03T14:47:55.455Z,7.67
2019-03-03T14:50:25.162Z,5.53
2019-03-03T14:52:54.775Z,5.77
2019-03-03T14:55:24.410Z,5.53
2019-03-03T14:57:54.023Z,6.37
2019-03-03T15:00:29.205Z,8.77
2019-03-03T15:03:00.588Z,5.70
2019-03-03T15:05:30.666Z,7.23
2019-03-03T15:08:00.482Z,6.23
2019-03-03T15:10:30.318Z,6.47
2019-03-03T15:13:00.218Z,7.13
2019-03-03T15:15:30.931Z,6.70
2019-03-03T15:18:00.670Z,6.53
2019-03-03T15:20:30.870Z,6.30
2019-03-03T15:23:00.633Z,5.83
2019-03-03T15:25:30.500Z,7.47
2019-03-03T15:28:00.420Z,5.60
2019-03-03T15:30:30.238Z,6.13
2019-03-03T15:33:00.023Z,7.27
2019-03-03T15:35:29.757Z,6.50
2019-03-03T15:37:59.565Z,7.63
2019-03-03T15:40:30.482Z,6.57
2019-03-03T15:43:00.214Z,8.50
2019-03-03T15:45:30.216Z,6.17
2019-03-03T15:48:00.053Z,6.53
2019-03-03T15:50:29.674Z,6.27
2019-03-03T15:52:59.281Z,8.23
2019-03-03T15:55:28.946Z,6.93
2019-03-03T15:57:58.630Z,6.90
2019-03-03T16:00:29.550Z,7.53
2019-03-03T16:02:59.234Z,5.97
2019-03-03T16:05:29.081Z,7.10
2019-03-03T16:07:58.874Z,8.87
2019-03-03T16:10:28.666Z,9.57
2019-03-03T16:12:58.381Z,7.00
2019-03-03T16:15:28.061Z,5.57
2019-03-03T16:17:57.849Z,6.80
2019-03-03T16:20:27.666Z,5.73
2019-03-03T16:22:57.490Z,6.30
2019-03-03T16:25:27.283Z,7.23
2019-03-03T16:27:56.917Z,7.40
2019-03-03T16:30:26.545Z,10.23
2019-03-03T16:32:56.154Z,24.97
2019-03-03T16:35:25.854Z,10.37
2019-03-03T16:37:55.502Z,9.90
2019-03-03T16:40:25.280Z,11.23
2019-03-03T16:42:54.987Z,6.83
2019-03-03T16:45:24.666Z,6.60
2019-03-03T16:47:54.372Z,7.50
2019-03-03T16:50:24.250Z,6.37
2019-03-03T16:52:53.878Z,6.83
2019-03-03T16:55:23.515Z,7.90
2019-03-03T16:57:53.159Z,5.43
2019-03-03T17:00:23.120Z,6.47
2019-03-03T17:02:52.741Z,7.27
2019-03-03T17:05:22.523Z,6.13
2019-03-03T17:07:52.315Z,6.57
2019-03-03T17:10:22.077Z,5.87
2019-03-03T17:12:51.686Z,6.50
2019-03-03T17:15:21.875Z,7.13
2019-03-03T17:17:51.587Z,7.90
2019-03-03T17:20:21.376Z,7.47
2019-03-03T17:22:51.122Z,6.27
2019-03-03T17:25:21.753Z,6.07
2019-03-03T17:27:51.517Z,9.17
2019-03-03T17:30:21.970Z,9.00
2019-03-03T17:32:51.850Z,8.60
2019-03-03T17:35:28.649Z,5.83
2019-03-03T17:37:59.421Z,6.57
2019-03-03T17:40:29.366Z,7.53
2019-03-03T17:42:59.247Z,6.90
2019-03-03T17:45:29.233Z,9.97
2019-03-03T17:47:59.089Z,10.47
2019-03-03T17:50:29.049Z,19.50
2019-03-03T17:53:04.089Z,11.57
2019-03-03T17:55:41.055Z,10.40
2019-03-03T17:58:14.808Z,7.63
2019-03-03T18:00:53.193Z,6.37
2019-03-03T18:03:26.047Z,6.27
2019-03-03T18:06:01.009Z,6.93
2019-03-03T18:08:34.001Z,7.03
2019-03-03T18:11:09.660Z,7.77
2019-03-03T18:13:47.133Z,8.07
2019-03-03T18:16:23.075Z,7.73
2019-03-03T18:19:01.515Z,8.53
2019-03-03T18:21:32.177Z,5.93
2019-03-03T18:24:07.242Z,8.13
2019-03-03T18:26:45.398Z,6.67
2019-03-03T18:29:23.294Z,7.17
2019-03-03T18:31:53.574Z,7.77
2019-03-03T18:34:31.307Z,8.30
2019-03-03T18:37:08.951Z,7.97
2019-03-03T18:39:47.016Z,7.03
2019-03-03T18:42:24.185Z,11.33
2019-03-03T18:45:03.401Z,13.37
2019-03-03T18:47:37.737Z,7.63
2019-03-03T18:50:14.886Z,8.47
2019-03-03T18:52:45.575Z,8.00
2019-03-03T18:55:23.394Z,7.63
2019-03-03T18:57:53.901Z,7.30
2019-03-03T19:00:27.256Z,7.87
2019-03-03T19:03:04.349Z,7.87
2019-03-03T19:05:40.159Z,6.60
2019-03-03T19:08:15.814Z,6.40
2019-03-03T19:10:57.426Z,4.87
2019-03-03T19:13:30.568Z,8.00
2019-03-03T19:16:08.398Z,5.60
2019-03-03T19:18:45.964Z,6.83
2019-03-03T19:21:23.101Z,7.10
2019-03-03T19:23:58.999Z,5.33
2019-03-03T19:26:30.487Z,8.30
2019-03-03T19:29:00.466Z,5.47
2019-03-03T19:31:30.135Z,5.67
2019-03-03T19:34:04.451Z,5.03
2019-03-03T19:36:39.313Z,7.17
2019-03-03T19:39:13.029Z,3.77
2019-03-03T19:41:44.188Z,4.63
2019-03-03T19:44:16.476Z,5.03
2019-03-03T19:46:51.338Z,4.83
2019-03-03T19:49:26.047Z,5.60
2019-03-03T19:51:59.482Z,6.20
2019-03-03T19:54:31.666Z,10.93
2019-03-03T19:57:05.163Z,5.70
2019-03-03T19:59:44.092Z,14.40
2019-03-03T20:02:18.755Z,7.43
2019-03-03T20:04:52.412Z,8.77
2019-03-03T20:07:28.957Z,7.57
2019-03-03T20:10:05.405Z,5.63
2019-03-03T20:12:37.748Z,5.47
2019-03-03T20:15:13.791Z,6.87
2019-03-03T20:17:48.711Z,4.90
2019-03-03T20:20:22.537Z,5.87
2019-03-03T20:22:54.599Z,5.67
2019-03-03T20:25:25.294Z,3.87
2019-03-03T20:28:01.129Z,4.10
2019-03-03T20:30:37.273Z,4.87
2019-03-03T20:33:08.490Z,3.90
2019-03-03T20:35:39.866Z,5.23
2019-03-03T20:38:13.002Z,4.63
2019-03-03T20:40:43.040Z,4.97
2019-03-03T20:43:13.005Z,4.17
2019-03-03T20:45:50.909Z,4.83
2019-03-03T20:48:24.623Z,5.00
2019-03-03T20:51:01.440Z,3.47
2019-03-03T20:53:31.834Z,4.20
2019-03-03T20:56:09.237Z,4.70
2019-03-03T20:58:46.991Z,4.83
2019-03-03T21:01:17.212Z,6.67
2019-03-03T21:03:46.833Z,20.47
2019-03-03T21:06:16.462Z,7.30
2019-03-03T21:08:46.096Z,4.00
2019-03-03T21:11:15.686Z,5.30
2019-03-03T21:13:45.286Z,4.17
2019-03-03T21:16:14.877Z,3.23
2019-03-03T21:18:44.498Z,2.67
2019-03-03T21:21:14.397Z,4.00
2019-03-03T21:23:43.994Z,3.27
2019-03-03T21:26:13.773Z,3.30
2019-03-03T21:29:02.610Z,3.37
2019-03-03T21:31:32.249Z,3.07
2019-03-03T21:34:01.954Z,2.77
2019-03-03T21:36:31.588Z,4.03
2019-03-03T21:39:01.477Z,2.77
2019-03-03T21:41:32.718Z,3.33
2019-03-03T21:44:02.344Z,2.87
2019-03-03T21:46:32.015Z,3.40
2019-03-03T21:49:01.643Z,2.53
2019-03-03T21:51:31.263Z,3.03
2019-03-03T21:54:00.902Z,3.63
2019-03-03T21:56:30.523Z,3.97
2019-03-03T21:59:00.135Z,2.97
2019-03-03T22:01:29.706Z,3.47
2019-03-03T22:03:59.556Z,3.27
2019-03-03T22:06:29.169Z,3.63
2019-03-03T22:08:58.798Z,3.40
2019-03-03T22:11:28.419Z,4.13
2019-03-03T22:13:58.170Z,2.43
2019-03-03T22:16:28.851Z,2.80
2019-03-03T22:18:58.494Z,3.27
2019-03-03T22:21:28.106Z,3.43
2019-03-03T22:23:57.730Z,2.63
2019-03-03T22:26:27.374Z,4.03
2019-03-03T22:28:57.111Z,2.83
2019-03-03T22:31:26.726Z,3.53
2019-03-03T22:33:56.452Z,3.17
2019-03-03T22:36:26.067Z,2.93
2019-03-03T22:38:55.686Z,3.90
2019-03-03T22:41:25.294Z,4.27
2019-03-03T22:43:54.896Z,2.57
2019-03-03T22:46:24.514Z,2.83
2019-03-03T22:48:54.331Z,3.43
2019-03-03T22:51:23.949Z,3.47
2019-03-03T22:53:53.543Z,3.33
2019-03-03T22:56:23.159Z,2.97
2019-03-03T22:58:52.770Z,2.20
2019-03-03T23:01:29.838Z,2.47
2019-03-03T23:04:33.488Z,2.40
2019-03-03T23:07:23.741Z,2.90
2019-03-03T23:10:37.299Z,3.20
2019-03-03T23:13:37.524Z,3.23
2019-03-03T23:16:31.947Z,3.33
2019-03-03T23:19:32.876Z,3.30
2019-03-03T23:22:42.938Z,4.30
2019-03-03T23:25:50.426Z,2.30
2019-03-03T23:28:21.113Z,2.30
2019-03-03T23:30:51.765Z,2.17
2019-03-03T23:33:21.394Z,2.30
2019-03-03T23:35:51.094Z,3.07
2019-03-03T23:38:20.721Z,3.00
2019-03-03T23:40:50.443Z,3.83
2019-03-03T23:43:20.181Z,3.70
2019-03-03T23:45:49.853Z,3.50
2019-03-03T23:48:19.461Z,3.07
2019-03-03T23:50:49.066Z,4.13
2019-03-03T23:53:18.665Z,3.37
2019-03-03T23:55:48.291Z,2.13
2019-03-03T23:58:18.190Z,3.70
